createdAt,value
2023-01-01T00:01:42.644Z,6.80
2023-01-01T00:04:14.699Z,6.35
2023-01-01T00:09:28.802Z,6.15
2023-01-01T00:11:56.075Z,6.75
2023-01-01T00:14:23.196Z,6.68
2023-01-01T00:16:50.678Z,6.22
2023-01-01T00:19:17.854Z,6.57
2023-01-01T00:21:46.678Z,7.07
2023-01-01T00:24:13.825Z,6.32
2023-01-01T00:26:40.908Z,7.15
2023-01-01T00:29:07.988Z,6.20
2023-01-01T00:31:35.139Z,7.07
2023-01-01T00:34:02.456Z,6.55
2023-01-01T00:36:30.323Z,6.72
2023-01-01T00:38:57.429Z,6.30
2023-01-01T00:41:24.670Z,7.10
2023-01-01T00:43:51.980Z,5.72
2023-01-01T00:46:19.139Z,6.60
2023-01-01T00:48:46.333Z,5.97
2023-01-01T00:51:13.442Z,6.75
2023-01-01T00:53:40.531Z,6.07
2023-01-01T00:56:07.835Z,5.90
2023-01-01T00:58:35.027Z,5.38
2023-01-01T01:01:02.586Z,5.35
2023-01-01T01:03:30.531Z,7.38
2023-01-01T01:08:37.041Z,5.57
2023-01-01T01:11:05.268Z,5.80
2023-01-01T01:13:32.426Z,6.72
2023-01-01T01:16:00.111Z,6.13
2023-01-01T01:18:27.286Z,6.20
2023-01-01T01:20:54.816Z,6.18
2023-01-01T01:23:21.937Z,6.30
2023-01-01T01:25:49.067Z,5.72
2023-01-01T01:28:16.150Z,5.70
2023-01-01T01:30:43.335Z,6.88
2023-01-01T01:33:10.471Z,6.53
2023-01-01T01:35:37.572Z,5.93
2023-01-01T01:38:04.747Z,5.50
2023-01-01T01:40:31.857Z,5.63
2023-01-01T01:42:58.918Z,6.07
2023-01-01T01:45:31.321Z,5.18
2023-01-01T01:48:00.511Z,5.57
2023-01-01T01:50:30.239Z,5.43
2023-01-01T01:55:38.176Z,5.70
2023-01-01T01:58:05.983Z,5.47
2023-01-01T02:00:33.127Z,5.85
2023-01-01T02:03:03.780Z,4.78
2023-01-01T02:05:31.105Z,4.63
2023-01-01T02:07:59.063Z,4.15
2023-01-01T02:10:27.338Z,5.20
2023-01-01T02:12:54.661Z,4.60
2023-01-01T02:15:48.849Z,4.50
2023-01-01T02:18:18.789Z,4.57
2023-01-01T02:20:52.762Z,4.70
2023-01-01T02:23:27.441Z,4.38
2023-01-01T02:28:59.540Z,4.40
2023-01-01T02:31:29.570Z,4.45
2023-01-01T02:33:58.944Z,5.13
2023-01-01T02:36:27.068Z,4.32
2023-01-01T02:38:56.299Z,4.00
2023-01-01T02:41:28.348Z,4.53
2023-01-01T02:54:12.743Z,4.22
2023-01-01T02:56:45.857Z,3.80
2023-01-01T03:01:58.810Z,3.95
2023-01-01T03:04:31.482Z,4.78
2023-01-01T03:09:46.744Z,4.05
2023-01-01T03:12:43.403Z,5.30
2023-01-01T03:15:16.453Z,4.18
2023-01-01T03:20:31.493Z,4.38
2023-01-01T03:23:02.031Z,4.28
2023-01-01T03:25:31.570Z,3.65
2023-01-01T03:28:01.956Z,3.58
2023-01-01T03:30:29.521Z,4.35
2023-01-01T03:33:03.661Z,4.43
2023-01-01T03:35:41.023Z,4.53
2023-01-01T03:38:12.009Z,3.63
2023-01-01T03:40:39.980Z,3.75
2023-01-01T03:43:14.601Z,4.03
2023-01-01T03:45:43.715Z,3.75
2023-01-01T03:48:11.493Z,4.20
2023-01-01T03:50:58.395Z,4.07
2023-01-01T03:53:37.992Z,3.45
2023-01-01T04:01:24.719Z,3.55
2023-01-01T04:03:52.499Z,3.50
2023-01-01T04:06:19.825Z,3.97
2023-01-01T04:08:47.334Z,3.55
2023-01-01T04:11:37.685Z,2.67
2023-01-01T04:14:04.943Z,3.25
2023-01-01T04:16:32.545Z,3.00
2023-01-01T04:18:59.780Z,3.20
2023-01-01T04:21:26.865Z,3.58
2023-01-01T04:23:53.937Z,3.20
2023-01-01T04:26:21.589Z,3.47
2023-01-01T04:28:48.701Z,2.78
2023-01-01T04:31:15.795Z,3.40
2023-01-01T04:33:42.910Z,2.83
2023-01-01T04:36:10.903Z,2.83
2023-01-01T04:38:38.557Z,2.80
2023-01-01T04:41:05.826Z,2.45
2023-01-01T04:43:32.953Z,2.65
2023-01-01T04:46:01.122Z,2.83
2023-01-01T04:48:29.676Z,2.70
2023-01-01T04:53:34.649Z,5.67
2023-01-01T04:58:46.518Z,2.88
2023-01-01T05:01:16.294Z,2.88
2023-01-01T05:03:43.511Z,2.60
2023-01-01T05:06:11.416Z,2.97
2023-01-01T05:08:39.791Z,2.88
2023-01-01T05:11:08.548Z,3.03
2023-01-01T05:13:36.501Z,3.42
2023-01-01T05:16:04.591Z,3.38
2023-01-01T05:18:32.139Z,3.70
2023-01-01T05:21:00.123Z,3.58
2023-01-01T05:23:27.824Z,3.30
2023-01-01T05:25:55.388Z,3.40
2023-01-01T05:28:23.657Z,2.85
2023-01-01T05:30:51.371Z,3.67
2023-01-01T05:33:18.611Z,2.97
2023-01-01T05:35:45.829Z,3.65
2023-01-01T05:38:13.004Z,3.75
2023-01-01T05:40:40.445Z,3.25
2023-01-01T05:43:08.088Z,3.38
2023-01-01T05:45:35.372Z,3.50
2023-01-01T05:48:03.163Z,3.70
2023-01-01T05:50:30.409Z,3.10
2023-01-01T05:52:57.576Z,3.55
2023-01-01T05:55:24.744Z,3.33
2023-01-01T05:57:51.853Z,4.15
2023-01-01T06:00:19.132Z,3.47
2023-01-01T06:02:46.477Z,3.55
2023-01-01T06:05:13.739Z,3.20
2023-01-01T06:07:46.434Z,3.17
2023-01-01T06:10:15.458Z,3.53
2023-01-01T06:12:42.826Z,3.53
2023-01-01T06:15:10.124Z,3.58
2023-01-01T06:17:37.222Z,3.78
2023-01-01T06:20:04.472Z,3.75
2023-01-01T06:22:32.901Z,4.03
2023-01-01T06:25:00.070Z,3.83
2023-01-01T06:27:27.222Z,3.72
2023-01-01T06:29:54.480Z,4.05
2023-01-01T06:32:21.571Z,3.40
2023-01-01T06:34:48.709Z,3.63
2023-01-01T06:37:15.821Z,3.90
2023-01-01T06:39:42.960Z,3.75
2023-01-01T06:42:10.119Z,4.03
2023-01-01T06:44:37.235Z,3.35
2023-01-01T06:47:04.377Z,4.50
2023-01-01T06:49:31.554Z,3.42
2023-01-01T06:51:58.657Z,3.97
2023-01-01T06:54:25.937Z,3.38
2023-01-01T06:56:53.148Z,3.30
2023-01-01T06:59:20.300Z,3.25
2023-01-01T07:01:47.511Z,3.33
2023-01-01T07:04:15.890Z,3.70
2023-01-01T07:06:43.364Z,3.45
2023-01-01T07:09:10.510Z,3.58
2023-01-01T07:11:37.643Z,3.60
2023-01-01T07:14:04.867Z,3.42
2023-01-01T07:16:32.240Z,3.33
2023-01-01T07:18:59.443Z,3.00
2023-01-01T07:24:10.895Z,3.50
2023-01-01T07:26:38.084Z,3.30
2023-01-01T07:29:08.058Z,3.10
2023-01-01T07:31:37.177Z,3.10
2023-01-01T07:34:04.934Z,3.85
2023-01-01T07:36:32.135Z,3.30
2023-01-01T07:38:59.248Z,3.85
2023-01-01T07:41:26.422Z,4.30
2023-01-01T07:43:53.551Z,3.50
2023-01-01T07:46:20.767Z,3.75
2023-01-01T07:48:48.381Z,3.85
2023-01-01T07:51:15.570Z,3.30
2023-01-01T07:53:42.724Z,3.55
2023-01-01T07:56:09.911Z,3.10
2023-01-01T07:58:41.070Z,2.60
2023-01-01T08:01:10.553Z,3.33
2023-01-01T08:03:37.811Z,3.65
2023-01-01T08:06:06.945Z,2.95
2023-01-01T08:08:34.136Z,3.72
2023-01-01T08:11:03.897Z,3.67
2023-01-01T08:13:31.473Z,3.03
2023-01-01T08:15:59.084Z,3.00
2023-01-01T08:18:26.372Z,3.60
2023-01-01T08:20:54.187Z,2.88
2023-01-01T08:23:21.410Z,3.20
2023-01-01T08:25:48.607Z,3.67
2023-01-01T08:28:15.778Z,3.58
2023-01-01T08:30:42.949Z,3.13
2023-01-01T08:33:10.039Z,3.10
2023-01-01T08:35:38.263Z,3.10
2023-01-01T08:38:06.156Z,3.38
2023-01-01T08:40:33.353Z,3.33
2023-01-01T08:43:00.496Z,2.70
2023-01-01T08:45:27.695Z,2.90
2023-01-01T08:47:55.064Z,3.10
2023-01-01T08:50:22.162Z,2.90
2023-01-01T08:52:49.424Z,3.10
2023-01-01T08:55:16.612Z,3.13
2023-01-01T08:57:43.831Z,3.55
2023-01-01T09:00:11.366Z,2.60
2023-01-01T09:02:38.648Z,3.30
2023-01-01T09:05:06.129Z,2.53
2023-01-01T09:07:33.305Z,3.00
2023-01-01T09:10:00.448Z,3.15
2023-01-01T09:12:27.605Z,3.33
2023-01-01T09:14:54.764Z,2.83
2023-01-01T09:17:22.760Z,3.33
2023-01-01T09:19:49.907Z,3.70
2023-01-01T09:22:17.159Z,2.58
2023-01-01T09:24:44.237Z,3.10
2023-01-01T09:27:11.503Z,3.85
2023-01-01T09:29:38.657Z,3.40
2023-01-01T09:32:05.833Z,3.40
2023-01-01T09:34:33.124Z,2.95
2023-01-01T09:37:00.334Z,3.28
2023-01-01T09:39:27.653Z,3.33
2023-01-01T09:41:59.836Z,3.38
2023-01-01T09:44:41.077Z,3.35
2023-01-01T09:47:18.082Z,3.22
2023-01-01T09:49:46.887Z,3.90
2023-01-01T09:52:15.257Z,4.30
2023-01-01T09:54:49.270Z,3.63
2023-01-01T09:57:20.236Z,3.67
2023-01-01T09:59:47.718Z,3.25
2023-01-01T10:05:00.059Z,4.35
2023-01-01T10:07:34.273Z,5.10
2023-01-01T10:10:21.681Z,4.60
2023-01-01T10:12:52.059Z,4.32
2023-01-01T10:15:22.880Z,5.45
2023-01-01T10:18:09.805Z,4.50
2023-01-01T10:20:38.812Z,3.58
2023-01-01T10:23:24.524Z,4.32
2023-01-01T10:25:51.892Z,4.07
2023-01-01T10:28:23.307Z,4.30
2023-01-01T10:30:52.230Z,5.40
2023-01-01T10:33:19.862Z,4.70
2023-01-01T10:35:49.602Z,4.20
2023-01-01T10:38:23.080Z,5.35
2023-01-01T10:40:51.134Z,4.78
2023-01-01T10:43:18.285Z,4.95
2023-01-01T10:45:48.955Z,4.80
2023-01-01T10:48:17.820Z,4.63
2023-01-01T10:50:48.621Z,5.03
2023-01-01T10:55:48.537Z,4.57
2023-01-01T10:58:35.579Z,4.72
2023-01-01T11:01:03.926Z,5.07
2023-01-01T11:03:31.665Z,5.22
2023-01-01T11:06:10.943Z,5.20
2023-01-01T11:08:39.485Z,4.88
2023-01-01T11:11:06.913Z,4.97
2023-01-01T11:13:34.379Z,4.53
2023-01-01T11:16:02.408Z,4.38
2023-01-01T11:18:36.013Z,5.15
2023-01-01T11:21:04.589Z,5.53
2023-01-01T11:23:35.203Z,5.50
2023-01-01T11:29:01.318Z,5.28
2023-01-01T11:31:30.782Z,6.10
2023-01-01T11:33:57.996Z,6.20
2023-01-01T11:36:28.317Z,5.70
2023-01-01T11:39:15.486Z,5.90
2023-01-01T11:41:44.906Z,5.32
2023-01-01T11:44:13.459Z,4.95
2023-01-01T11:46:40.985Z,4.13
2023-01-01T11:49:15.450Z,4.10
2023-01-01T11:51:42.563Z,4.07
2023-01-01T11:54:11.925Z,4.15
2023-01-01T11:56:39.594Z,3.85
2023-01-01T11:59:15.441Z,3.42
2023-01-01T12:01:46.256Z,3.90
2023-01-01T12:04:33.255Z,3.33
2023-01-01T12:07:06.446Z,3.65
2023-01-01T12:15:11.365Z,4.03
2023-01-01T12:17:58.272Z,3.50
2023-01-01T12:20:28.095Z,3.72
2023-01-01T12:22:56.844Z,4.13
2023-01-01T12:25:24.060Z,3.15
2023-01-01T12:28:11.006Z,2.85
2023-01-01T12:30:52.154Z,3.17
2023-01-01T12:33:28.171Z,3.00
2023-01-01T12:41:48.037Z,3.17
2023-01-01T12:44:20.280Z,2.90
2023-01-01T12:47:07.218Z,2.90
2023-01-01T12:55:16.134Z,3.30
2023-01-01T12:57:47.140Z,3.38
2023-01-01T13:00:16.520Z,4.45
2023-01-01T13:03:02.295Z,6.63
2023-01-01T13:05:37.425Z,12.15
2023-01-01T13:08:05.519Z,8.93
2023-01-01T13:10:36.233Z,7.07
2023-01-01T13:13:03.819Z,8.07
2023-01-01T13:39:54.966Z,7.35
2023-01-01T13:42:42.597Z,6.95
2023-01-01T13:45:36.960Z,5.82
2023-01-01T13:48:22.686Z,4.95
2023-01-01T13:51:10.827Z,5.00
2023-01-01T13:56:23.582Z,5.40
2023-01-01T13:59:05.527Z,5.45
2023-01-01T14:04:21.143Z,4.55
2023-01-01T14:06:50.487Z,3.55
2023-01-01T14:09:20.145Z,3.22
2023-01-01T14:11:47.273Z,3.38
2023-01-01T14:17:00.759Z,4.68
2023-01-01T14:19:28.310Z,4.40
2023-01-01T14:21:55.854Z,4.28
2023-01-01T14:24:23.983Z,3.83
2023-01-01T14:26:51.822Z,4.03
2023-01-01T14:29:22.589Z,3.05
2023-01-01T14:31:49.738Z,3.28
2023-01-01T14:34:23.520Z,3.35
2023-01-01T14:36:53.399Z,3.38
2023-01-01T14:39:27.782Z,3.70
2023-01-01T14:41:58.205Z,3.50
2023-01-01T14:44:28.503Z,3.17
2023-01-01T14:46:56.400Z,2.60
2023-01-01T14:49:27.347Z,3.15
2023-01-01T14:51:57.310Z,3.50
2023-01-01T14:54:27.877Z,2.92
2023-01-01T14:56:55.107Z,2.97
2023-01-01T14:59:45.751Z,2.55
2023-01-01T15:04:50.356Z,2.33
2023-01-01T15:07:20.170Z,2.85
2023-01-01T15:09:47.462Z,2.63
2023-01-01T15:12:15.277Z,2.58
2023-01-01T15:14:45.774Z,2.80
2023-01-01T15:17:14.243Z,2.92
2023-01-01T15:19:42.863Z,2.67
2023-01-01T15:22:11.149Z,3.08
2023-01-01T15:24:38.528Z,2.72
2023-01-01T15:27:06.968Z,2.78
2023-01-01T15:29:37.192Z,2.80
2023-01-01T15:32:06.419Z,3.40
2023-01-01T15:34:50.499Z,2.97
2023-01-01T15:37:19.969Z,2.58
2023-01-01T15:39:51.997Z,2.72
2023-01-01T15:44:46.217Z,2.65
2023-01-01T15:47:14.256Z,2.72
2023-01-01T15:49:41.638Z,3.33
2023-01-01T15:52:27.530Z,2.97
2023-01-01T15:54:54.635Z,2.95
2023-01-01T15:57:23.152Z,3.83
2023-01-01T15:59:51.531Z,3.28
2023-01-01T16:04:57.284Z,3.42
2023-01-01T16:07:25.564Z,4.00
2023-01-01T16:09:57.382Z,3.35
2023-01-01T16:12:25.087Z,3.20
2023-01-01T16:14:52.411Z,3.80
2023-01-01T16:17:20.575Z,3.80
2023-01-01T16:19:48.013Z,3.40
2023-01-01T16:22:16.315Z,3.85
2023-01-01T16:24:44.214Z,4.00
2023-01-01T16:27:11.504Z,4.32
2023-01-01T16:29:40.323Z,5.35
2023-01-01T16:32:15.243Z,4.25
2023-01-01T16:34:42.333Z,4.85
2023-01-01T16:37:09.521Z,4.78
2023-01-01T16:39:36.710Z,5.82
2023-01-01T16:42:03.879Z,5.47
2023-01-01T16:44:31.203Z,4.25
2023-01-01T16:46:58.465Z,5.70
2023-01-01T16:49:25.591Z,5.30
2023-01-01T16:51:52.672Z,5.70
2023-01-01T16:54:19.816Z,5.13
2023-01-01T16:56:47.173Z,5.90
2023-01-01T16:59:15.448Z,5.45
2023-01-01T17:01:42.697Z,5.07
2023-01-01T17:04:09.968Z,5.38
2023-01-01T17:06:38.236Z,5.50
2023-01-01T17:09:05.566Z,5.35
2023-01-01T17:11:33.941Z,5.22
2023-01-01T17:14:02.625Z,5.00
2023-01-01T17:16:36.206Z,6.57
2023-01-01T17:19:21.129Z,4.75
2023-01-01T17:21:49.037Z,4.35
2023-01-01T17:24:17.295Z,4.85
2023-01-01T17:26:44.583Z,5.15
2023-01-01T17:29:12.204Z,5.07
2023-01-01T17:31:39.314Z,5.30
2023-01-01T17:34:06.521Z,5.38
2023-01-01T17:36:33.593Z,6.38
2023-01-01T17:39:00.726Z,6.22
2023-01-01T17:41:27.818Z,6.45
2023-01-01T17:43:56.455Z,5.88
2023-01-01T17:46:24.808Z,7.10
2023-01-01T17:48:52.382Z,6.13
2023-01-01T17:51:19.504Z,5.85
2023-01-01T17:53:47.083Z,6.40
2023-01-01T17:56:15.372Z,6.90
2023-01-01T17:58:44.017Z,5.70
2023-01-01T18:03:49.298Z,6.63
2023-01-01T18:06:16.522Z,6.65
2023-01-01T18:08:43.632Z,6.53
2023-01-01T18:11:10.790Z,6.72
2023-01-01T18:13:37.903Z,6.25
2023-01-01T18:16:06.012Z,6.65
2023-01-01T18:18:35.974Z,6.38
2023-01-01T18:21:04.175Z,6.97
2023-01-01T18:23:32.622Z,7.63
2023-01-01T18:26:01.161Z,7.22
2023-01-01T18:28:28.609Z,6.97
2023-01-01T18:30:56.153Z,6.75
2023-01-01T18:33:23.292Z,7.40
2023-01-01T18:35:50.490Z,6.57
2023-01-01T18:38:17.868Z,7.10
2023-01-01T18:40:49.184Z,7.35
2023-01-01T18:43:18.761Z,7.75
2023-01-01T18:45:45.930Z,7.03
2023-01-01T18:48:14.025Z,7.72
2023-01-01T18:50:41.565Z,6.53
2023-01-01T23:17:26.451Z,1.48
2023-01-01T23:19:58.930Z,1.70
2023-01-01T23:22:29.529Z,1.20
2023-01-01T23:24:56.991Z,1.52
2023-01-01T23:27:24.322Z,1.42
2023-01-01T23:29:52.961Z,1.00
2023-01-01T23:32:20.227Z,1.38
2023-01-01T23:34:47.563Z,1.40
2023-01-01T23:37:15.301Z,1.15
2023-01-01T23:39:42.408Z,1.45
2023-01-01T23:42:09.498Z,1.35
2023-01-01T23:44:36.619Z,1.63
2023-01-01T23:47:04.341Z,1.60
2023-01-01T23:49:32.297Z,2.03
2023-01-01T23:51:59.676Z,1.73
2023-01-01T23:54:26.758Z,2.05
2023-01-01T23:56:53.879Z,1.45
2023-01-01T23:59:21.009Z,1.58
